createdAt,value
2019-04-22T00:00:30.758Z,44.76
2019-04-22T00:03:01.536Z,44.67
2019-04-22T00:05:51.144Z,44.58
2019-04-22T00:08:19.719Z,44.49
2019-04-22T00:10:56.098Z,44.46
2019-04-22T00:13:26.361Z,44.41
2019-04-22T00:15:47.580Z,44.29
2019-04-22T00:18:19.902Z,44.36
2019-04-22T00:20:54.562Z,44.68
2019-04-22T00:23:24.076Z,44.99
2019-04-22T00:25:57.289Z,44.95
2019-04-22T00:28:24.972Z,45.08
2019-04-22T00:30:54.794Z,45.17
2019-04-22T00:33:20.416Z,45.21
2019-04-22T00:35:55.170Z,45.42
2019-04-22T00:40:52.579Z,45.53
2019-04-22T00:43:24.655Z,45.48
2019-04-22T00:45:57.839Z,45.55
2019-04-22T00:48:27.790Z,45.81
2019-04-22T00:51:01.642Z,46.10
2019-04-22T00:53:29.829Z,46.46
2019-04-22T00:56:03.054Z,46.70
2019-04-22T00:58:32.787Z,46.91
2019-04-22T01:01:09.089Z,46.88
2019-04-22T01:03:40.641Z,46.79
2019-04-22T01:06:04.580Z,46.99
2019-04-22T01:08:43.203Z,46.81
2019-04-22T01:11:13.568Z,46.88
2019-04-22T01:13:30.528Z,47.13
2019-04-22T01:16:09.347Z,47.24
2019-04-22T01:18:39.446Z,47.35
2019-04-22T01:21:17.778Z,47.51
2019-04-22T01:23:34.402Z,47.58
2019-04-22T01:26:05.309Z,47.51
2019-04-22T01:28:34.328Z,47.47
2019-04-22T01:31:01.990Z,47.67
2019-04-22T01:33:32.443Z,47.76
2019-04-22T01:36:15.049Z,48.05
2019-04-22T01:38:51.291Z,48.43
2019-04-22T01:41:25.313Z,48.60
2019-04-22T01:44:04.001Z,48.92
2019-04-22T01:46:29.463Z,48.93
2019-04-22T01:48:57.181Z,48.90
2019-04-22T01:51:35.439Z,49.00
2019-04-22T01:54:00.237Z,49.14
2019-04-22T01:56:20.510Z,49.22
2019-04-22T01:58:48.222Z,49.27
2019-04-22T02:01:25.274Z,49.42
2019-04-22T02:03:56.155Z,49.44
2019-04-22T02:06:21.925Z,49.56
2019-04-22T02:11:29.274Z,49.07
2019-04-22T02:13:56.369Z,48.94
2019-04-22T02:16:20.085Z,48.88
2019-04-22T02:18:53.068Z,48.98
2019-04-22T02:21:20.219Z,49.10
2019-04-22T02:26:25.772Z,49.13
2019-04-22T02:29:06.487Z,49.13
2019-04-22T02:36:29.505Z,49.12
2019-04-22T02:39:10.147Z,49.23
2019-04-22T02:46:53.236Z,49.29
2019-04-22T02:54:22.180Z,49.47
2019-04-22T02:56:34.140Z,49.66
2019-04-22T03:01:44.905Z,49.79
2019-04-22T03:09:03.440Z,50.08
2019-04-22T03:11:35.835Z,50.16
2019-04-22T03:14:01.361Z,50.20
2019-04-22T03:16:33.230Z,50.32
2019-04-22T03:21:31.301Z,50.68
2019-04-22T03:24:20.525Z,50.63
2019-04-22T03:26:31.927Z,50.71
2019-04-22T03:29:04.196Z,50.66
2019-04-22T03:32:17.357Z,50.68
2019-04-22T03:35:15.458Z,50.52
2019-04-22T03:37:09.538Z,50.51
2019-04-22T03:59:31.818Z,51.25
2019-04-22T04:04:26.064Z,51.43
2019-04-22T04:09:24.079Z,51.38
2019-04-22T04:14:26.719Z,51.32
2019-04-22T04:16:56.119Z,51.37
2019-04-22T04:19:54.244Z,51.28
2019-04-22T04:21:48.505Z,51.32
2019-04-22T04:32:16.484Z,51.29
2019-04-22T04:34:49.344Z,51.30
2019-04-22T04:39:28.794Z,51.35
2019-04-22T04:42:05.368Z,51.30
2019-04-22T04:44:35.089Z,51.07
2019-04-22T04:46:58.751Z,51.14
2019-04-22T04:49:34.910Z,51.00
2019-04-22T04:52:03.526Z,50.91
2019-04-22T05:02:06.345Z,50.76
2019-04-22T05:04:37.246Z,50.69
2019-04-22T05:12:01.910Z,50.58
2019-04-22T05:14:48.900Z,50.53
2019-04-22T05:17:18.424Z,50.30
2019-04-22T05:19:36.086Z,50.07
2019-04-22T05:22:14.888Z,49.71
2019-04-22T05:24:48.522Z,49.47
2019-04-22T05:30:00.187Z,48.71
2019-04-22T05:32:13.325Z,48.34
2019-04-22T05:34:42.203Z,48.03
2019-04-22T05:37:14.262Z,47.63
2019-04-22T05:39:43.678Z,47.47
2019-04-22T05:42:16.393Z,47.07
2019-04-22T05:44:47.958Z,46.74
2019-04-22T05:47:14.801Z,46.23
2019-04-22T05:49:39.334Z,46.14
2019-04-22T05:52:12.517Z,45.84
2019-04-22T05:54:38.638Z,44.81
2019-04-22T05:57:14.387Z,44.77
2019-04-22T05:59:46.233Z,44.75
2019-04-22T06:04:44.962Z,43.93
2019-04-22T06:07:13.781Z,43.91
2019-04-22T06:09:38.838Z,43.47
2019-04-22T06:12:14.791Z,42.81
2019-04-22T06:14:47.993Z,42.75
2019-04-22T06:17:24.956Z,42.18
2019-04-22T06:19:50.873Z,42.18
2019-04-22T06:22:30.351Z,42.03
2019-04-22T06:24:49.426Z,41.25
2019-04-22T06:27:21.205Z,41.29
2019-04-22T06:29:46.154Z,41.19
2019-04-22T06:32:31.519Z,40.99
2019-04-22T06:34:48.249Z,41.06
2019-04-22T06:39:50.986Z,40.61
2019-04-22T06:42:21.897Z,40.21
2019-04-22T06:44:51.659Z,39.92
2019-04-22T06:47:40.107Z,39.81
2019-04-22T06:49:49.532Z,39.92
2019-04-22T06:54:54.914Z,39.56
2019-04-22T06:57:24.242Z,39.45
2019-04-22T06:59:54.872Z,39.49
2019-04-22T07:02:30.731Z,39.44
2019-04-22T07:04:52.008Z,39.36
2019-04-22T07:07:21.735Z,39.34
2019-04-22T07:09:54.304Z,39.02
2019-04-22T07:12:26.043Z,38.85
2019-04-22T07:14:55.897Z,38.44
2019-04-22T07:17:23.166Z,38.49
2019-04-22T07:19:47.548Z,38.48
2019-04-22T07:22:21.502Z,38.27
2019-04-22T07:24:55.904Z,38.18
2019-04-22T07:27:22.238Z,38.05
2019-04-22T07:29:55.358Z,37.71
2019-04-22T07:32:39.720Z,37.02
2019-04-22T07:34:53.616Z,37.25
2019-04-22T07:37:31.666Z,37.35
2019-04-22T07:39:51.392Z,37.35
2019-04-22T07:42:26.223Z,36.84
2019-04-22T07:44:54.889Z,36.84
2019-04-22T07:47:34.148Z,37.19
2019-04-22T07:50:12.804Z,37.26
2019-04-22T07:52:24.601Z,37.33
2019-04-22T07:54:52.398Z,37.26
2019-04-22T07:57:28.403Z,37.44
2019-04-22T07:59:57.557Z,37.05
2019-04-22T08:02:23.640Z,37.30
2019-04-22T08:10:04.548Z,36.92
2019-04-22T08:12:29.659Z,37.02
2019-04-22T08:14:53.728Z,37.18
2019-04-22T08:17:53.399Z,36.83
2019-04-22T08:19:59.221Z,35.91
2019-04-22T08:22:21.401Z,36.03
2019-04-22T08:24:56.127Z,35.42
2019-04-22T08:27:24.602Z,34.93
2019-04-22T08:30:07.430Z,35.14
2019-04-22T08:32:29.904Z,34.49
2019-04-22T08:34:59.165Z,33.96
2019-04-22T08:40:01.678Z,34.82
2019-04-22T08:42:36.605Z,33.74
2019-04-22T08:47:30.974Z,34.30
2019-04-22T08:50:04.847Z,34.23
2019-04-22T08:52:31.871Z,34.00
2019-04-22T08:55:04.065Z,34.27
2019-04-22T08:57:34.709Z,33.77
2019-04-22T09:00:14.481Z,33.98
2019-04-22T09:02:32.748Z,33.60
2019-04-22T09:05:00.095Z,32.74
2019-04-22T09:15:20.614Z,33.39
2019-04-22T09:17:31.501Z,32.88
2019-04-22T09:20:00.267Z,32.65
2019-04-22T09:22:26.360Z,32.28
2019-04-22T09:24:56.063Z,31.83
2019-04-22T09:29:58.530Z,31.73
2019-04-22T09:32:32.941Z,32.08
2019-04-22T09:37:34.679Z,31.30
2019-04-22T09:40:04.650Z,31.54
2019-04-22T09:42:37.136Z,32.01
2019-04-22T09:45:04.072Z,32.20
2019-04-22T09:47:33.839Z,31.87
2019-04-22T09:50:03.740Z,31.38
2019-04-22T09:52:51.618Z,32.04
2019-04-22T09:55:08.306Z,31.07
2019-04-22T09:57:35.761Z,30.70
2019-04-22T10:00:10.848Z,30.85
2019-04-22T10:02:42.689Z,31.45
2019-04-22T10:05:09.125Z,31.56
2019-04-22T10:07:31.823Z,29.64
2019-04-22T10:10:09.954Z,29.56
2019-04-22T10:12:36.607Z,29.83
2019-04-22T10:15:00.135Z,30.34
2019-04-22T10:17:31.641Z,28.90
2019-04-22T10:19:59.659Z,28.95
2019-04-22T10:22:43.659Z,29.20
2019-04-22T10:25:05.087Z,29.08
2019-04-22T10:27:35.095Z,28.97
2019-04-22T10:30:04.426Z,28.30
2019-04-22T10:32:33.447Z,27.37
2019-04-22T10:34:55.543Z,27.25
2019-04-22T10:37:20.442Z,27.02
2019-04-22T10:39:56.225Z,27.42
2019-04-22T10:42:18.950Z,27.42
2019-04-22T10:44:48.507Z,27.36
2019-04-22T10:47:18.113Z,27.94
2019-04-22T10:49:46.731Z,28.22
2019-04-22T10:52:16.391Z,27.66
2019-04-22T10:54:45.477Z,27.52
2019-04-22T10:57:14.125Z,27.42
2019-04-22T10:59:42.701Z,27.42
2019-04-22T11:02:11.699Z,27.62
2019-04-22T11:04:40.560Z,27.57
2019-04-22T11:07:10.993Z,28.29
2019-04-22T11:09:50.752Z,28.85
2019-04-22T11:12:15.454Z,29.41
2019-04-22T11:14:41.865Z,29.41
2019-04-22T11:17:09.489Z,30.19
2019-04-22T11:19:39.345Z,30.74
2019-04-22T11:22:18.101Z,30.67
2019-04-22T11:24:38.903Z,30.09
2019-04-22T11:27:08.345Z,30.50
2019-04-22T11:29:37.475Z,30.95
2019-04-22T11:32:06.317Z,30.95
2019-04-22T11:34:35.422Z,30.73
2019-04-22T11:37:05.165Z,31.40
2019-04-22T11:39:36.488Z,31.51
2019-04-22T11:42:04.501Z,31.68
2019-04-22T11:44:33.045Z,31.61
2019-04-22T11:47:01.674Z,31.61
2019-04-22T11:49:30.145Z,31.59
2019-04-22T11:51:58.990Z,30.89
2019-04-22T11:54:28.563Z,30.89
2019-04-22T11:56:57.041Z,31.26
2019-04-22T11:59:26.723Z,31.67
2019-04-22T12:01:55.361Z,31.68
2019-04-22T12:04:23.816Z,32.02
2019-04-22T12:06:53.811Z,31.50
2019-04-22T12:09:23.658Z,31.50
2019-04-22T12:11:53.796Z,31.12
2019-04-22T12:14:22.394Z,31.05
2019-04-22T12:16:50.788Z,30.61
2019-04-22T12:19:19.146Z,30.99
2019-04-22T12:21:49.068Z,31.31
2019-04-22T12:24:17.483Z,31.20
2019-04-22T12:26:46.407Z,31.23
2019-04-22T12:29:15.414Z,30.50
2019-04-22T12:31:45.162Z,30.09
2019-04-22T12:34:13.587Z,30.25
2019-04-22T12:36:42.732Z,30.45
2019-04-22T12:39:11.621Z,30.07
2019-04-22T12:41:40.191Z,29.93
2019-04-22T12:44:09.349Z,29.86
2019-04-22T12:46:38.411Z,30.29
2019-04-22T12:49:08.014Z,30.33
2019-04-22T12:51:36.775Z,30.12
2019-04-22T12:54:06.738Z,29.74
2019-04-22T12:56:35.488Z,29.94
2019-04-22T12:59:05.570Z,30.16
2019-04-22T13:01:35.071Z,29.28
2019-04-22T13:04:07.833Z,28.92
2019-04-22T13:06:33.740Z,29.38
2019-04-22T13:09:02.271Z,29.08
2019-04-22T13:11:34.159Z,29.23
2019-04-22T13:14:00.993Z,29.00
2019-04-22T13:16:29.444Z,28.83
2019-04-22T13:19:01.956Z,28.62
2019-04-22T13:21:28.929Z,28.58
2019-04-22T13:23:57.277Z,28.36
2019-04-22T13:26:27.181Z,28.57
2019-04-22T13:28:56.933Z,28.59
2019-04-22T13:31:26.837Z,28.72
2019-04-22T13:33:58.057Z,28.88
2019-04-22T13:36:27.660Z,29.10
2019-04-22T13:38:55.503Z,28.87
2019-04-22T13:41:31.696Z,28.36
2019-04-22T13:43:54.015Z,28.36
2019-04-22T13:46:22.425Z,28.62
2019-04-22T13:49:14.654Z,28.44
2019-04-22T13:56:45.101Z,28.59
2019-04-22T13:59:03.107Z,28.56
2019-04-22T14:01:23.008Z,28.37
2019-04-22T14:04:02.660Z,28.70
2019-04-22T14:06:31.219Z,29.18
2019-04-22T14:09:01.027Z,28.95
2019-04-22T14:11:37.645Z,29.28
2019-04-22T14:14:00.833Z,28.86
2019-04-22T14:16:31.016Z,28.56
2019-04-22T14:19:00.227Z,28.27
2019-04-22T14:21:28.670Z,28.31
2019-04-22T14:23:58.413Z,28.56
2019-04-22T14:26:28.470Z,28.26
2019-04-22T14:28:57.589Z,27.72
2019-04-22T14:31:26.715Z,27.85
2019-04-22T14:33:59.365Z,27.69
2019-04-22T14:36:25.449Z,27.78
2019-04-22T14:38:54.421Z,27.49
2019-04-22T14:41:42.577Z,27.80
2019-04-22T14:45:05.412Z,27.87
2019-04-22T14:46:51.157Z,27.93
2019-04-22T14:49:16.637Z,27.68
2019-04-22T14:51:44.148Z,27.60
2019-04-22T14:54:10.110Z,27.34
2019-04-22T14:56:24.357Z,27.28
2019-04-22T14:58:53.120Z,27.08
2019-04-22T15:01:21.712Z,27.11
2019-04-22T15:03:50.436Z,27.32
2019-04-22T15:06:20.141Z,27.17
2019-04-22T15:08:48.992Z,27.31
2019-04-22T15:11:17.402Z,27.32
2019-04-22T15:13:47.360Z,27.21
2019-04-22T15:16:33.903Z,27.29
2019-04-22T15:19:04.213Z,27.17
2019-04-22T15:21:32.708Z,27.27
2019-04-22T15:24:02.742Z,27.43
2019-04-22T15:26:32.622Z,27.32
2019-04-22T15:29:01.092Z,27.36
2019-04-22T15:31:29.525Z,27.58
2019-04-22T15:33:58.416Z,27.49
2019-04-22T15:36:27.977Z,27.68
2019-04-22T15:38:57.595Z,27.69
2019-04-22T15:41:26.109Z,27.91
2019-04-22T15:43:54.486Z,28.08
2019-04-22T15:46:23.507Z,28.25
2019-04-22T15:48:52.029Z,28.51
2019-04-22T15:51:20.733Z,28.44
2019-04-22T15:53:49.541Z,28.32
2019-04-22T15:56:18.809Z,28.64
2019-04-22T15:58:47.984Z,28.60
2019-04-22T16:01:25.620Z,28.57
2019-04-22T16:03:47.077Z,28.50
2019-04-22T16:06:15.786Z,28.46
2019-04-22T16:08:45.696Z,28.60
2019-04-22T16:11:14.232Z,28.43
2019-04-22T16:13:42.634Z,28.60
2019-04-22T16:16:12.389Z,28.58
2019-04-22T16:18:42.153Z,28.73
2019-04-22T16:21:11.310Z,28.77
2019-04-22T16:23:44.726Z,29.01
2019-04-22T16:26:15.254Z,28.88
2019-04-22T16:28:45.181Z,28.96
2019-04-22T16:31:13.673Z,28.84
2019-04-22T16:33:45.406Z,28.86
2019-04-22T16:36:13.095Z,29.18
2019-04-22T16:38:42.793Z,29.29
2019-04-22T16:41:12.694Z,29.25
2019-04-22T16:43:42.865Z,29.46
2019-04-22T16:46:11.724Z,29.55
2019-04-22T16:48:40.166Z,29.59
2019-04-22T16:51:09.901Z,29.65
2019-04-22T16:53:38.985Z,29.45
2019-04-22T16:56:08.712Z,29.53
2019-04-22T16:58:37.241Z,29.65
2019-04-22T17:01:07.605Z,29.64
2019-04-22T17:03:38.698Z,29.92
2019-04-22T17:06:19.320Z,29.95
2019-04-22T17:08:48.684Z,30.12
2019-04-22T17:11:17.911Z,30.37
2019-04-22T17:13:47.998Z,30.49
2019-04-22T17:16:18.000Z,30.75
2019-04-22T17:18:47.202Z,30.75
2019-04-22T17:21:15.699Z,30.73
2019-04-22T17:23:45.568Z,30.80
2019-04-22T17:26:14.768Z,30.75
2019-04-22T17:28:43.817Z,31.02
2019-04-22T17:31:12.968Z,31.15
2019-04-22T17:33:41.481Z,31.27
2019-04-22T17:36:10.197Z,31.33
2019-04-22T17:38:48.702Z,31.44
2019-04-22T17:41:22.095Z,31.59
2019-04-22T17:44:09.800Z,31.81
2019-04-22T17:46:40.214Z,31.90
2019-04-22T17:49:21.893Z,31.93
2019-04-22T17:52:13.887Z,32.03
2019-04-22T17:54:38.478Z,32.17
2019-04-22T17:57:08.146Z,32.25
2019-04-22T17:59:38.173Z,32.27
2019-04-22T18:02:03.068Z,32.45
2019-04-22T18:04:18.056Z,32.62
2019-04-22T18:07:15.082Z,32.56
2019-04-22T18:09:57.925Z,32.62
2019-04-22T18:12:16.307Z,32.65
2019-04-22T18:17:11.430Z,32.84
2019-04-22T18:19:36.431Z,32.83
2019-04-22T18:22:01.142Z,32.98
2019-04-22T18:24:26.416Z,33.01
2019-04-22T18:27:14.590Z,33.13
2019-04-22T18:29:41.795Z,33.18
2019-04-22T18:31:58.207Z,33.32
2019-04-22T18:34:30.873Z,33.40
2019-04-22T18:37:03.963Z,33.44
2019-04-22T18:39:40.493Z,33.47
2019-04-22T18:42:07.607Z,33.65
2019-04-22T18:44:44.042Z,33.68
2019-04-22T18:47:08.074Z,33.81
2019-04-22T18:49:37.387Z,33.93
2019-04-22T18:52:28.170Z,33.87
2019-04-22T18:55:04.238Z,33.88
2019-04-22T18:57:27.373Z,33.94
2019-04-22T18:59:47.302Z,34.11
2019-04-22T19:02:16.304Z,34.13
2019-04-22T19:04:53.910Z,34.16
2019-04-22T19:07:44.265Z,34.20
2019-04-22T19:10:10.485Z,34.32
2019-04-22T19:12:41.566Z,34.44
2019-04-22T19:15:09.318Z,34.55
2019-04-22T19:20:08.264Z,34.82
2019-04-22T19:22:50.416Z,34.89
2019-04-22T19:25:04.137Z,35.08
2019-04-22T19:27:37.747Z,35.21
2019-04-22T19:30:12.230Z,35.40
2019-04-22T19:32:41.920Z,35.41
2019-04-22T19:35:04.899Z,35.57
2019-04-22T19:37:35.885Z,35.73
2019-04-22T19:40:25.751Z,35.76
2019-04-22T19:42:49.505Z,35.82
2019-04-22T19:45:08.824Z,35.75
2019-04-22T19:47:56.570Z,35.92
2019-04-22T19:50:12.868Z,36.03
2019-04-22T19:52:39.960Z,36.03
2019-04-22T19:55:12.730Z,36.18
2019-04-22T19:57:34.511Z,36.37
2019-04-22T20:00:10.885Z,36.45
2019-04-22T20:02:44.897Z,36.56
2019-04-22T20:05:22.043Z,36.68
2019-04-22T20:07:41.398Z,36.83
2019-04-22T20:10:20.785Z,36.98
2019-04-22T20:12:46.754Z,36.96
2019-04-22T20:15:13.889Z,37.15
2019-04-22T20:18:11.849Z,37.28
2019-04-22T20:20:23.240Z,37.45
2019-04-22T20:22:47.094Z,37.57
2019-04-22T20:25:08.602Z,37.74
2019-04-22T20:27:47.343Z,37.75
2019-04-22T20:30:23.174Z,37.95
2019-04-22T20:32:47.389Z,38.11
2019-04-22T20:35:21.004Z,38.20
2019-04-22T20:37:54.789Z,38.37
2019-04-22T20:40:21.874Z,38.43
2019-04-22T20:42:54.414Z,38.58
2019-04-22T20:45:29.105Z,38.55
2019-04-22T20:47:42.832Z,38.70
2019-04-22T20:50:23.804Z,38.69
2019-04-22T20:52:59.664Z,39.05
2019-04-22T20:55:16.165Z,39.46
2019-04-22T20:57:56.107Z,39.55
2019-04-22T21:00:16.897Z,40.11
2019-04-22T21:02:40.222Z,40.31
2019-04-22T21:05:14.311Z,40.24
2019-04-22T21:07:53.940Z,40.46
2019-04-22T21:10:15.618Z,40.67
2019-04-22T21:12:41.824Z,40.90
2019-04-22T21:15:29.651Z,40.95
2019-04-22T21:17:53.579Z,41.30
2019-04-22T21:20:26.259Z,41.32
2019-04-22T21:22:48.278Z,41.58
2019-04-22T21:25:15.620Z,41.61
2019-04-22T21:27:54.392Z,41.93
2019-04-22T21:30:23.109Z,41.92
2019-04-22T21:32:49.424Z,42.31
2019-04-22T21:35:35.240Z,42.20
2019-04-22T21:38:00.417Z,42.54
2019-04-22T21:40:24.041Z,42.66
2019-04-22T21:42:59.578Z,42.83
2019-04-22T21:45:20.798Z,42.74
2019-04-22T21:48:05.236Z,42.91
2019-04-22T21:53:00.847Z,42.99
2019-04-22T21:55:29.773Z,43.07
2019-04-22T21:58:05.090Z,43.16
2019-04-22T22:03:11.351Z,43.25
2019-04-22T22:05:28.654Z,43.39
2019-04-22T22:07:52.129Z,43.27
2019-04-22T22:10:33.917Z,43.49
2019-04-22T22:13:06.690Z,43.57
2019-04-22T22:15:37.641Z,43.59
2019-04-22T22:18:02.033Z,43.89
2019-04-22T22:20:30.964Z,43.73
2019-04-22T22:23:08.003Z,44.00
2019-04-22T22:25:33.649Z,44.08
2019-04-22T22:28:17.050Z,44.00
2019-04-22T22:30:55.156Z,44.10
2019-04-22T22:33:06.891Z,44.16
2019-04-22T22:35:36.182Z,44.28
2019-04-22T22:38:05.470Z,44.28
2019-04-22T22:40:23.227Z,44.54
2019-04-22T22:42:49.932Z,44.33
2019-04-22T22:45:28.039Z,44.59
2019-04-22T22:48:15.006Z,44.75
2019-04-22T22:50:40.332Z,44.65
2019-04-22T22:53:16.980Z,44.70
2019-04-22T22:55:41.033Z,44.82
2019-04-22T22:58:14.259Z,44.76
2019-04-22T23:00:35.125Z,44.85
2019-04-22T23:03:38.419Z,44.81
2019-04-22T23:05:45.330Z,44.94
2019-04-22T23:08:17.024Z,45.13
2019-04-22T23:10:52.207Z,45.08
2019-04-22T23:13:19.004Z,45.05
2019-04-22T23:15:37.143Z,45.29
2019-04-22T23:17:50.103Z,45.38
2019-04-22T23:20:28.992Z,45.46
2019-04-22T23:23:14.067Z,45.21
2019-04-22T23:25:44.797Z,45.33
2019-04-22T23:28:16.076Z,45.31
2019-04-22T23:30:52.894Z,45.59
2019-04-22T23:33:42.773Z,45.67
2019-04-22T23:36:10.745Z,45.86
2019-04-22T23:38:51.898Z,45.88
2019-04-22T23:46:37.949Z,46.11
2019-04-22T23:49:10.221Z,46.33
2019-04-22T23:51:41.881Z,46.26
2019-04-22T23:54:22.256Z,46.39
2019-04-22T23:56:33.582Z,46.53
2019-04-22T23:59:13.199Z,46.51
